Time;durP1;ratioP1;P1;durP2;ratioP2;P2;SDS_P1;SDS_P2;PMS_P1;PMS_P2;Temp;Humidity;BMP_temperature;BMP_pressure;BME280_temperature;BME280_humidity;BME280_pressure;Samples;Min_cycle;Max_cycle;Signal;HPM_P1;HPM_P2
2023/07/15 00:01:48;;;;;;;1.50;1.00;;;24.50;70.80;;;;;;4928398;29;20492;-81
2023/07/15 00:04:23;;;;;;;1.43;0.90;;;24.50;71.10;;;;;;4921626;29;20975;-84
2023/07/15 00:06:58;;;;;;;1.50;0.90;;;24.50;71.00;;;;;;4920133;29;20551;-85
2023/07/15 00:12:44;;;;;;;1.40;0.83;;;24.40;71.30;;;;;;4920245;29;20560;-86
2023/07/15 00:15:31;;;;;;;1.50;0.90;;;24.40;71.60;;;;;;4931265;29;20612;-84
2023/07/15 00:21:57;;;;;;;1.43;0.80;;;24.30;71.90;;;;;;4923949;29;20476;-88
2023/07/15 00:24:43;;;;;;;1.50;1.00;;;24.30;71.90;;;;;;4928736;29;20464;-85
2023/07/15 00:27:52;;;;;;;1.40;0.80;;;24.20;72.10;;;;;;4934030;29;20463;-85
2023/07/15 00:30:26;;;;;;;1.47;0.90;;;24.20;72.40;;;;;;4928938;29;20459;-87
2023/07/15 00:33:14;;;;;;;1.50;1.00;;;24.10;72.70;;;;;;4928689;29;20537;-87
2023/07/15 00:36:02;;;;;;;1.50;0.90;;;24.10;72.70;;;;;;4926328;29;20469;-87
2023/07/15 00:38:47;;;;;;;1.47;0.90;;;24.10;72.70;;;;;;4932751;29;20494;-86
2023/07/15 00:44:15;;;;;;;1.47;0.90;;;24.00;73.00;;;;;;4922229;29;20840;-89
2023/07/15 00:50:42;;;;;;;1.50;0.90;;;23.90;73.30;;;;;;4873718;29;20518;-86
2023/07/15 00:58:54;;;;;;;1.43;0.90;;;23.80;74.00;;;;;;4885383;29;20561;-86
2023/07/15 01:15:22;;;;;;;1.50;0.90;;;23.60;74.50;;;;;;4878376;29;20464;-87
2023/07/15 01:21:19;;;;;;;1.50;0.90;;;23.50;74.80;;;;;;4906064;29;21002;-87
2023/07/15 01:28:04;;;;;;;;;;;;;;;;;;;;;
2023/07/15 01:30:44;;;;;;;1.43;0.90;;;23.40;75.60;;;;;;4930067;29;20468;-88
2023/07/15 01:33:23;;;;;;;1.50;0.90;;;23.40;75.60;;;;;;4934176;29;20463;-86
2023/07/15 01:45:18;;;;;;;1.47;0.90;;;23.40;76.10;;;;;;4930522;29;20472;-87
2023/07/15 01:48:08;;;;;;;1.50;0.90;;;23.30;76.20;;;;;;4936371;29;20475;-85
2023/07/15 01:50:47;;;;;;;1.50;1.00;;;23.30;75.90;;;;;;4933341;29;20543;-86
2023/07/15 01:56:04;;;;;;;1.43;0.90;;;23.40;75.70;;;;;;4930273;29;20460;-84
2023/07/15 02:02:08;;;;;;;1.50;0.90;;;23.40;75.30;;;;;;4899908;29;20499;-85
2023/07/15 02:04:54;;;;;;;1.50;0.90;;;23.40;75.20;;;;;;4935947;29;20891;-87
2023/07/15 02:07:49;;;;;;;1.50;0.80;;;23.40;75.40;;;;;;4929778;29;20464;-86
2023/07/15 02:14:30;;;;;;;1.43;0.90;;;23.40;75.40;;;;;;4933047;29;20463;-88
2023/07/15 02:16:58;;;;;;;1.47;0.90;;;23.30;75.40;;;;;;4850125;29;20467;-85
2023/07/15 02:19:26;;;;;;;1.47;0.90;;;23.30;75.50;;;;;;4901817;29;20489;-84
2023/07/15 02:21:53;;;;;;;1.50;0.90;;;23.20;75.40;;;;;;4925734;29;20492;-84
2023/07/15 02:24:19;;;;;;;1.43;0.90;;;23.20;75.50;;;;;;4932927;29;20465;-83
2023/07/15 02:26:46;;;;;;;1.50;1.30;;;23.20;75.80;;;;;;4928854;29;20463;-85
2023/07/15 02:29:15;;;;;;;1.50;0.90;;;23.10;75.80;;;;;;4926457;29;20867;-86
2023/07/15 02:31:42;;;;;;;1.47;0.90;;;23.20;75.70;;;;;;4933684;29;20551;-85
2023/07/15 02:34:13;;;;;;;1.50;1.00;;;23.20;75.70;;;;;;4924986;29;20469;-84
2023/07/15 02:39:51;;;;;;;1.43;0.90;;;23.20;75.70;;;;;;4926438;29;20566;-85
2023/07/15 02:42:27;;;;;;;1.47;0.90;;;23.20;75.60;;;;;;4930168;29;20500;-85
2023/07/15 02:45:00;;;;;;;1.60;1.30;;;23.10;75.70;;;;;;4931040;29;20475;-85
2023/07/15 02:47:49;;;;;;;1.43;0.90;;;23.10;76.10;;;;;;4936113;29;20460;-84
2023/07/15 02:50:26;;;;;;;1.50;1.00;;;23.10;76.20;;;;;;4934780;29;20526;-85
2023/07/15 02:52:55;;;;;;;1.47;0.90;;;23.00;76.40;;;;;;4927144;29;20468;-85
2023/07/15 02:55:26;;;;;;;1.43;0.90;;;22.90;76.40;;;;;;4931885;29;20566;-85
2023/07/15 02:58:00;;;;;;;1.50;0.90;;;22.90;76.70;;;;;;4933165;29;20488;-85
2023/07/15 03:00:27;;;;;;;1.47;0.90;;;22.80;77.20;;;;;;4932216;29;20479;-84
2023/07/15 03:03:15;;;;;;;1.47;0.90;;;22.80;77.30;;;;;;4933994;29;20531;-86
2023/07/15 03:05:47;;;;;;;1.50;0.90;;;22.70;77.80;;;;;;4929451;29;20460;-85
2023/07/15 03:08:19;;;;;;;1.50;0.90;;;22.60;78.10;;;;;;4936767;29;20483;-85
2023/07/15 03:10:50;;;;;;;1.43;0.90;;;22.50;77.80;;;;;;4933284;29;20528;-86
2023/07/15 03:13:17;;;;;;;1.50;0.87;;;22.50;78.40;;;;;;4931011;29;20842;-85
2023/07/15 03:15:56;;;;;;;1.50;1.00;;;22.40;78.50;;;;;;4931636;29;20473;-86
2023/07/15 03:18:26;;;;;;;1.50;1.00;;;22.30;79.10;;;;;;4926837;29;20570;-85
2023/07/15 03:20:53;;;;;;;1.50;1.10;;;22.20;79.10;;;;;;4931652;29;20604;-85
2023/07/15 03:23:22;;;;;;;1.50;0.90;;;22.20;79.00;;;;;;4934447;29;20463;-82
2023/07/15 03:25:50;;;;;;;1.47;0.90;;;22.10;79.50;;;;;;4922620;29;20492;-85
2023/07/15 03:28:17;;;;;;;1.47;0.90;;;22.10;79.30;;;;;;4923878;29;20575;-85
2023/07/15 03:30:44;;;;;;;1.47;0.90;;;22.10;79.70;;;;;;4921354;29;20464;-82
2023/07/15 03:33:11;;;;;;;1.43;0.90;;;22.00;79.50;;;;;;4922426;29;20465;-83
2023/07/15 03:35:37;;;;;;;1.47;0.90;;;22.00;80.00;;;;;;4931160;29;20467;-83
2023/07/15 03:38:05;;;;;;;1.50;0.90;;;21.90;79.80;;;;;;4930343;29;20496;-84
2023/07/15 03:40:33;;;;;;;1.50;1.00;;;21.90;80.00;;;;;;4924277;29;20539;-83
2023/07/15 03:43:00;;;;;;;1.50;0.90;;;21.90;80.00;;;;;;4924517;29;20599;-85
2023/07/15 03:45:27;;;;;;;1.43;0.90;;;21.80;80.20;;;;;;4933903;29;20468;-84
2023/07/15 03:48:05;;;;;;;1.60;1.27;;;21.80;79.80;;;;;;4929633;29;20579;-86
2023/07/15 03:50:32;;;;;;;1.50;0.90;;;21.80;80.10;;;;;;4926805;29;20460;-84
2023/07/15 03:53:07;;;;;;;1.50;1.00;;;21.80;79.70;;;;;;4922286;29;20461;-85
2023/07/15 03:55:37;;;;;;;1.47;0.90;;;21.80;80.10;;;;;;4930263;29;20471;-85
2023/07/15 04:00:56;;;;;;;1.50;0.90;;;21.80;80.10;;;;;;4923998;29;20453;-85
2023/07/15 04:03:22;;;;;;;1.47;0.90;;;21.80;80.20;;;;;;4927967;29;20475;-85
2023/07/15 04:05:49;;;;;;;1.50;0.90;;;21.80;80.10;;;;;;4921231;29;20547;-85
2023/07/15 04:08:19;;;;;;;2.00;1.07;;;21.70;79.80;;;;;;4924412;29;20489;-86
2023/07/15 04:10:54;;;;;;;2.20;1.20;;;21.70;80.60;;;;;;4925358;29;20461;-85
2023/07/15 04:13:20;;;;;;;1.43;0.90;;;21.70;80.30;;;;;;4919298;29;20504;-86
2023/07/15 04:15:47;;;;;;;1.60;1.27;;;21.80;80.40;;;;;;4924946;29;20469;-85
2023/07/15 04:18:14;;;;;;;1.43;0.90;;;21.80;80.50;;;;;;4923404;29;20512;-85
2023/07/15 04:20:41;;;;;;;1.47;0.90;;;21.80;80.20;;;;;;4924305;29;20583;-85
2023/07/15 04:23:11;;;;;;;1.50;0.90;;;21.80;80.40;;;;;;4931248;29;20484;-86
2023/07/15 04:25:39;;;;;;;1.43;0.90;;;21.80;80.60;;;;;;4922114;29;20464;-85
2023/07/15 04:28:07;;;;;;;1.43;0.90;;;21.90;80.20;;;;;;4928957;29;20560;-85
2023/07/15 04:30:35;;;;;;;2.13;1.60;;;21.90;80.20;;;;;;4928660;29;20472;-85
2023/07/15 04:33:02;;;;;;;1.47;0.90;;;21.90;80.10;;;;;;4926920;29;20460;-85
2023/07/15 04:35:29;;;;;;;1.47;0.90;;;22.00;79.80;;;;;;4927838;29;20897;-82
2023/07/15 04:37:59;;;;;;;1.47;1.00;;;22.00;80.30;;;;;;4923884;29;20910;-84
2023/07/15 04:40:28;;;;;;;1.47;0.90;;;22.10;79.70;;;;;;4923346;29;20829;-86
2023/07/15 04:42:54;;;;;;;1.50;0.90;;;22.10;80.00;;;;;;4927950;29;20519;-86
2023/07/15 04:45:24;;;;;;;1.60;1.30;;;22.10;79.90;;;;;;4928734;29;21023;-85
2023/07/15 04:47:55;;;;;;;1.43;0.90;;;22.20;79.60;;;;;;4921396;29;20495;-85
2023/07/15 04:50:30;;;;;;;1.50;0.90;;;22.30;79.40;;;;;;4927366;29;20701;-85
2023/07/15 04:53:00;;;;;;;1.43;0.90;;;22.40;79.40;;;;;;4923678;29;20459;-85
2023/07/15 04:55:27;;;;;;;1.50;0.90;;;22.40;79.40;;;;;;4920926;29;20468;-85
2023/07/15 04:57:56;;;;;;;1.50;0.90;;;22.50;79.50;;;;;;4925053;29;20729;-86
2023/07/15 05:00:27;;;;;;;1.47;0.97;;;22.60;79.70;;;;;;4926148;29;20477;-85
2023/07/15 05:03:01;;;;;;;1.50;0.90;;;22.70;79.90;;;;;;4923881;29;21069;-85
2023/07/15 05:05:30;;;;;;;1.47;0.90;;;22.80;79.60;;;;;;4924736;29;20519;-85
2023/07/15 05:08:10;;;;;;;1.47;0.93;;;22.90;79.30;;;;;;4926758;29;20500;-86
2023/07/15 05:10:36;;;;;;;1.40;0.90;;;23.00;79.20;;;;;;4920607;29;20921;-85
2023/07/15 05:13:03;;;;;;;1.47;0.90;;;23.10;79.50;;;;;;4924389;29;20468;-84
2023/07/15 05:15:40;;;;;;;1.50;0.90;;;23.30;79.70;;;;;;4920926;29;20923;-86
2023/07/15 05:18:15;;;;;;;1.50;0.90;;;23.40;79.50;;;;;;4932733;29;20476;-86
2023/07/15 05:20:42;;;;;;;1.50;0.90;;;23.60;79.00;;;;;;4944035;29;20471;-84
2023/07/15 05:23:14;;;;;;;1.50;0.90;;;23.70;78.10;;;;;;4946962;29;20771;-84
2023/07/15 05:25:48;;;;;;;1.43;0.87;;;23.70;77.80;;;;;;4936828;29;20467;-84
2023/07/15 05:28:15;;;;;;;1.40;0.90;;;23.90;78.30;;;;;;4940739;29;20486;-85
2023/07/15 05:30:47;;;;;;;1.47;0.90;;;24.10;77.70;;;;;;4923470;29;20554;-85
2023/07/15 05:33:16;;;;;;;1.40;0.90;;;24.20;77.70;;;;;;4931706;29;20468;-84
2023/07/15 05:35:58;;;;;;;1.47;0.90;;;24.50;77.30;;;;;;4925027;29;20499;-86
2023/07/15 05:38:33;;;;;;;1.50;0.90;;;24.70;76.60;;;;;;4922963;29;20577;-89
2023/07/15 05:41:13;;;;;;;1.50;0.90;;;24.90;75.70;;;;;;4928902;29;20459;-84
2023/07/15 05:43:50;;;;;;;1.43;0.90;;;25.10;75.40;;;;;;4928301;29;20507;-84
2023/07/15 05:46:18;;;;;;;1.47;0.90;;;25.20;75.30;;;;;;4927459;29;20472;-84
2023/07/15 05:48:45;;;;;;;1.43;0.90;;;25.40;75.30;;;;;;4925061;29;20484;-84
2023/07/15 05:51:11;;;;;;;1.47;0.80;;;25.50;75.10;;;;;;4923984;29;20852;-83
2023/07/15 05:53:41;;;;;;;1.43;0.80;;;25.70;74.30;;;;;;4918914;29;20479;-81
2023/07/15 05:56:08;;;;;;;1.40;0.80;;;25.90;73.80;;;;;;4918472;29;20468;-81
2023/07/15 05:58:35;;;;;;;1.47;0.93;;;26.00;73.20;;;;;;4914802;29;20912;-82
2023/07/15 06:01:02;;;;;;;1.43;0.90;;;26.20;72.80;;;;;;4912746;29;21325;-81
2023/07/15 06:03:30;;;;;;;1.50;0.83;;;26.30;72.20;;;;;;4920153;29;20870;-84
2023/07/15 06:06:01;;;;;;;1.60;1.00;;;26.40;71.80;;;;;;4920907;29;20546;-83
2023/07/15 06:08:28;;;;;;;1.47;0.87;;;26.50;72.10;;;;;;4922232;29;21003;-83
2023/07/15 06:10:55;;;;;;;1.50;1.00;;;26.60;72.20;;;;;;4925643;29;20475;-81
2023/07/15 06:13:22;;;;;;;1.50;0.80;;;26.80;71.40;;;;;;4922812;29;20468;-81
2023/07/15 06:15:49;;;;;;;3.43;1.47;;;27.00;71.70;;;;;;4925971;29;21063;-83
2023/07/15 06:18:16;;;;;;;1.43;0.90;;;27.10;71.10;;;;;;4925442;29;20998;-80
2023/07/15 06:20:46;;;;;;;1.50;0.80;;;27.30;70.50;;;;;;4920784;29;20637;-81
2023/07/15 06:23:14;;;;;;;1.43;0.83;;;27.40;70.20;;;;;;4930375;29;21327;-81
2023/07/15 06:25:57;;;;;;;1.47;0.80;;;27.60;70.40;;;;;;4921847;29;20473;-80
2023/07/15 06:28:23;;;;;;;1.50;0.90;;;27.70;69.40;;;;;;4924498;29;20595;-80
2023/07/15 06:30:50;;;;;;;1.47;0.80;;;27.90;69.20;;;;;;4928350;29;20962;-80
2023/07/15 06:33:17;;;;;;;1.70;1.10;;;28.00;69.30;;;;;;4924865;29;20456;-80
2023/07/15 06:35:48;;;;;;;1.50;0.80;;;28.00;68.70;;;;;;4923619;29;21060;-82
2023/07/15 06:38:26;;;;;;;1.50;0.80;;;28.00;69.20;;;;;;4923190;29;20502;-83
2023/07/15 06:40:53;;;;;;;1.47;0.80;;;28.10;68.90;;;;;;4925554;29;20474;-80
2023/07/15 06:43:20;;;;;;;1.50;0.80;;;28.20;69.10;;;;;;4927737;29;20497;-83
2023/07/15 06:45:47;;;;;;;1.43;0.80;;;28.30;69.20;;;;;;4924640;29;20895;-82
2023/07/15 06:51:04;;;;;;;1.43;0.80;;;28.50;68.70;;;;;;4927624;29;20471;-82
2023/07/15 06:53:33;;;;;;;1.47;0.80;;;28.50;68.50;;;;;;4927320;29;20487;-83
2023/07/15 06:56:08;;;;;;;1.50;0.90;;;28.50;68.70;;;;;;4927073;29;20471;-82
2023/07/15 06:58:48;;;;;;;1.50;0.90;;;28.50;68.30;;;;;;4928618;29;20873;-83
2023/07/15 07:01:15;;;;;;;1.47;0.80;;;28.40;68.70;;;;;;4926006;29;20491;-83
2023/07/15 07:03:48;;;;;;;1.50;0.83;;;28.30;68.20;;;;;;4924730;29;20491;-83
2023/07/15 07:06:18;;;;;;;1.50;0.80;;;28.20;68.20;;;;;;4926557;29;20479;-84
2023/07/15 07:08:45;;;;;;;1.50;0.80;;;28.10;68.70;;;;;;4924074;29;20488;-82
2023/07/15 07:11:12;;;;;;;1.47;0.80;;;28.10;69.20;;;;;;4921635;29;20464;-82
2023/07/15 07:13:39;;;;;;;1.47;0.83;;;28.00;68.90;;;;;;4922329;29;20719;-84
2023/07/15 07:16:08;;;;;;;1.50;0.80;;;27.90;69.30;;;;;;4925558;29;20468;-80
2023/07/15 07:21:19;;;;;;;1.43;0.80;;;27.70;69.50;;;;;;4924286;29;20840;-83
2023/07/15 07:23:47;;;;;;;1.50;0.80;;;27.60;69.60;;;;;;4923243;29;20955;-80
2023/07/15 07:26:14;;;;;;;1.50;0.80;;;27.50;70.00;;;;;;4922981;29;20488;-80
2023/07/15 07:28:42;;;;;;;1.50;0.80;;;27.50;70.60;;;;;;4919674;29;20506;-80
2023/07/15 07:31:09;;;;;;;1.47;0.80;;;27.40;70.60;;;;;;4923689;29;20469;-80
2023/07/15 07:33:36;;;;;;;1.47;0.80;;;27.40;70.80;;;;;;4925602;29;20463;-80
2023/07/15 07:36:07;;;;;;;1.50;1.00;;;27.40;70.90;;;;;;4922709;29;20535;-83
2023/07/15 07:38:35;;;;;;;1.47;0.80;;;27.30;71.10;;;;;;4922819;29;21057;-81
2023/07/15 07:41:06;;;;;;;1.47;0.90;;;27.20;71.40;;;;;;4926032;29;20559;-82
2023/07/15 07:43:33;;;;;;;1.50;0.80;;;27.10;71.80;;;;;;4921509;29;20600;-83
2023/07/15 07:46:01;;;;;;;1.50;1.10;;;27.10;71.90;;;;;;4918879;29;20471;-81
2023/07/15 07:49:04;;;;;;;1.40;0.80;;;27.10;72.10;;;;;;4926746;29;20523;-82
2023/07/15 07:51:31;;;;;;;1.50;0.97;;;27.20;72.20;;;;;;4921074;29;20471;-82
2023/07/15 07:53:59;;;;;;;1.47;0.80;;;27.20;72.40;;;;;;4924345;29;20464;-84
2023/07/15 07:56:27;;;;;;;1.43;0.80;;;27.20;72.30;;;;;;4926863;29;20471;-84
2023/07/15 07:59:03;;;;;;;1.47;0.80;;;27.10;72.50;;;;;;4927700;29;20494;-83
2023/07/15 08:01:30;;;;;;;1.43;0.80;;;27.10;72.80;;;;;;4922155;29;20499;-82
2023/07/15 08:04:11;;;;;;;1.60;1.10;;;27.10;72.90;;;;;;4920121;29;20491;-84
2023/07/15 08:06:40;;;;;;;1.47;0.90;;;27.20;73.20;;;;;;4923379;29;20475;-83
2023/07/15 08:09:16;;;;;;;1.47;0.80;;;27.20;73.10;;;;;;4923051;29;20492;-81
2023/07/15 08:11:45;;;;;;;1.47;0.90;;;27.20;73.30;;;;;;4914885;29;20491;-84
2023/07/15 08:14:12;;;;;;;1.40;0.80;;;27.20;73.50;;;;;;4919264;29;21265;-82
2023/07/15 08:16:42;;;;;;;1.47;0.87;;;27.20;73.40;;;;;;4922127;29;20617;-82
2023/07/15 08:19:14;;;;;;;1.47;0.80;;;27.10;73.20;;;;;;4923383;29;20531;-82
2023/07/15 08:24:56;;;;;;;1.43;0.80;;;26.90;73.90;;;;;;4925254;29;20453;-80
2023/07/15 08:27:23;;;;;;;1.47;0.80;;;26.80;74.40;;;;;;4925741;29;20476;-82
2023/07/15 08:29:50;;;;;;;1.50;0.90;;;26.80;74.70;;;;;;4923455;29;20577;-81
2023/07/15 08:32:17;;;;;;;1.47;0.80;;;26.70;75.50;;;;;;4924281;29;20471;-81
2023/07/15 08:34:58;;;;;;;1.47;0.80;;;26.70;76.30;;;;;;4927883;29;20884;-82
2023/07/15 08:37:25;;;;;;;1.47;0.90;;;26.60;77.50;;;;;;4916638;29;20486;-84
2023/07/15 08:39:57;;;;;;;1.43;0.80;;;26.50;78.20;;;;;;4920814;29;20471;-85
2023/07/15 08:42:25;;;;;;;1.47;0.80;;;26.40;79.10;;;;;;4922119;29;20471;-79
2023/07/15 08:44:53;;;;;;;1.87;1.53;;;26.20;83.90;;;;;;4922255;29;20979;-79
2023/07/15 08:47:22;;;;;;;1.47;0.90;;;25.80;87.80;;;;;;4920716;29;20472;-81
2023/07/15 08:49:50;;;;;;;1.47;0.90;;;25.50;90.10;;;;;;4920448;29;20797;-79
2023/07/15 08:52:19;;;;;;;1.47;0.90;;;25.20;92.00;;;;;;4920661;29;20636;-78
2023/07/15 08:54:48;;;;;;;1.50;0.90;;;24.80;94.90;;;;;;4922489;29;20478;-77
2023/07/15 08:57:26;;;;;;;1.47;0.90;;;24.60;97.40;;;;;;4923938;29;20519;-79
2023/07/15 08:59:54;;;;;;;1.50;0.90;;;24.30;98.20;;;;;;4917469;29;20480;-77
2023/07/15 09:02:21;;;;;;;1.50;0.90;;;24.20;98.20;;;;;;4919635;29;20497;-77
2023/07/15 09:04:48;;;;;;;1.50;0.90;;;23.90;98.20;;;;;;4920227;29;20467;-79
2023/07/15 09:07:15;;;;;;;1.50;0.90;;;23.70;98.20;;;;;;4922263;29;20479;-78
2023/07/15 09:09:43;;;;;;;1.47;0.90;;;23.40;98.20;;;;;;4920764;29;20488;-77
2023/07/15 09:12:12;;;;;;;1.50;1.00;;;23.30;98.20;;;;;;4923300;29;20520;-78
2023/07/15 09:14:43;;;;;;;1.43;0.83;;;23.10;98.20;;;;;;4922578;29;20531;-77
2023/07/15 09:17:15;;;;;;;1.47;0.90;;;22.90;98.20;;;;;;4923675;29;20467;-77
2023/07/15 09:19:43;;;;;;;1.50;0.90;;;22.70;98.20;;;;;;4925107;29;20495;-78
2023/07/15 09:22:10;;;;;;;1.47;0.90;;;22.60;98.20;;;;;;4926179;29;20844;-79
2023/07/15 09:24:38;;;;;;;1.50;1.00;;;22.40;98.20;;;;;;4926244;29;20615;-78
2023/07/15 09:27:06;;;;;;;1.50;0.90;;;22.30;98.20;;;;;;4925155;29;20464;-80
2023/07/15 09:29:34;;;;;;;1.50;0.90;;;22.10;98.20;;;;;;4922510;29;20491;-78
2023/07/15 09:32:02;;;;;;;1.40;0.90;;;22.00;98.20;;;;;;4920466;29;20587;-78
2023/07/15 09:34:29;;;;;;;1.47;0.90;;;22.00;98.20;;;;;;4922358;29;20464;-78
2023/07/15 09:36:56;;;;;;;1.40;0.90;;;22.00;98.20;;;;;;4921816;29;20567;-79
2023/07/15 09:39:24;;;;;;;1.50;1.10;;;21.90;98.20;;;;;;4923959;29;20484;-78
2023/07/15 09:42:02;;;;;;;1.43;0.90;;;21.90;98.20;;;;;;4923760;29;20467;-77
2023/07/15 09:44:40;;;;;;;1.50;0.90;;;21.80;98.20;;;;;;4924911;29;20497;-79
2023/07/15 09:47:11;;;;;;;1.50;0.90;;;21.80;98.20;;;;;;4926131;29;20468;-78
2023/07/15 09:49:37;;;;;;;1.50;0.87;;;21.70;98.20;;;;;;4927518;29;20491;-78
2023/07/15 09:52:06;;;;;;;1.47;0.90;;;21.60;98.20;;;;;;4922551;29;20476;-78
2023/07/15 09:54:35;;;;;;;1.43;0.90;;;21.70;98.20;;;;;;4924088;29;20542;-78
2023/07/15 09:57:05;;;;;;;1.43;0.90;;;21.70;98.20;;;;;;4921130;29;20538;-79
2023/07/15 09:59:44;;;;;;;1.47;0.80;;;21.70;98.20;;;;;;4924452;29;21068;-78
2023/07/15 10:02:23;;;;;;;1.43;0.90;;;21.70;98.20;;;;;;4922154;29;20499;-78
2023/07/15 10:04:53;;;;;;;1.47;0.90;;;21.80;98.20;;;;;;4924042;29;20498;-79
2023/07/15 10:07:20;;;;;;;1.50;1.00;;;21.90;98.20;;;;;;4923871;29;20495;-79
2023/07/15 10:09:47;;;;;;;1.47;0.90;;;21.90;98.20;;;;;;4923691;29;20498;-79
2023/07/15 10:12:15;;;;;;;1.40;0.90;;;21.90;98.20;;;;;;4925922;29;20574;-81
2023/07/15 10:14:42;;;;;;;1.50;0.90;;;21.90;98.20;;;;;;4924175;29;20566;-80
2023/07/15 10:17:11;;;;;;;1.50;0.90;;;22.00;98.20;;;;;;4924473;29;20547;-79
2023/07/15 10:19:44;;;;;;;1.50;0.90;;;22.00;98.20;;;;;;4922722;29;20506;-78
2023/07/15 10:22:14;;;;;;;1.50;0.90;;;22.10;98.20;;;;;;4925899;29;20529;-78
2023/07/15 10:24:43;;;;;;;1.50;0.90;;;22.10;98.20;;;;;;4925272;29;21040;-79
2023/07/15 10:27:11;;;;;;;1.43;0.90;;;22.20;98.20;;;;;;4923103;29;20500;-79
2023/07/15 10:29:39;;;;;;;1.47;0.90;;;22.20;98.20;;;;;;4923453;29;20942;-79
2023/07/15 10:32:11;;;;;;;1.50;0.90;;;22.20;98.20;;;;;;4925090;29;20522;-78
2023/07/15 10:34:40;;;;;;;1.70;1.07;;;22.20;98.20;;;;;;4922900;29;21000;-81
2023/07/15 10:37:11;;;;;;;1.40;0.90;;;22.30;98.20;;;;;;4923791;29;20471;-78
2023/07/15 10:39:39;;;;;;;1.47;0.90;;;22.40;98.20;;;;;;4924261;29;20498;-80
2023/07/15 10:42:11;;;;;;;1.63;1.20;;;22.50;98.20;;;;;;4923209;29;20467;-79
2023/07/15 10:44:58;;;;;;;1.47;0.90;;;22.50;98.20;;;;;;4920965;29;20583;-80
2023/07/15 10:47:25;;;;;;;1.47;0.90;;;22.50;98.20;;;;;;4923379;29;20518;-79
2023/07/15 10:49:52;;;;;;;1.40;0.90;;;22.40;98.20;;;;;;4923391;29;20527;-80
2023/07/15 10:52:23;;;;;;;1.50;0.90;;;22.40;98.20;;;;;;4924613;29;20472;-80
2023/07/15 10:54:54;;;;;;;1.43;0.90;;;22.40;98.20;;;;;;4920977;29;20900;-80
2023/07/15 10:57:21;;;;;;;1.43;0.90;;;22.30;98.20;;;;;;4925534;29;20467;-79
2023/07/15 10:59:48;;;;;;;1.47;0.90;;;22.30;98.20;;;;;;4925003;29;21023;-81
2023/07/15 11:02:16;;;;;;;1.47;0.90;;;22.20;98.20;;;;;;4925632;29;20574;-79
2023/07/15 11:04:46;;;;;;;1.47;0.90;;;22.20;98.20;;;;;;4923034;29;20554;-80
2023/07/15 11:07:14;;;;;;;1.50;0.90;;;22.30;98.20;;;;;;4925658;29;20561;-79
2023/07/15 11:09:48;;;;;;;1.50;1.07;;;22.40;98.20;;;;;;4923236;29;20516;-81
2023/07/15 11:12:15;;;;;;;1.47;0.90;;;22.50;98.20;;;;;;4925656;29;20460;-80
2023/07/15 11:14:43;;;;;;;1.50;0.90;;;22.70;98.20;;;;;;4924116;29;20845;-79
2023/07/15 11:17:14;;;;;;;1.47;0.80;;;22.80;98.20;;;;;;4922738;29;20483;-79
2023/07/15 11:19:41;;;;;;;1.47;0.90;;;23.00;98.20;;;;;;4924278;29;20850;-80
2023/07/15 11:22:08;;;;;;;1.50;0.90;;;23.30;98.20;;;;;;4923058;29;20480;-78
2023/07/15 11:24:36;;;;;;;1.47;0.90;;;23.40;98.20;;;;;;4921371;29;20594;-78
2023/07/15 11:27:06;;;;;;;1.50;0.90;;;23.60;98.20;;;;;;4919651;29;20471;-79
2023/07/15 11:29:33;;;;;;;1.43;0.90;;;23.80;98.20;;;;;;4921956;29;20544;-78
2023/07/15 11:32:06;;;;;;;1.50;0.90;;;23.90;98.20;;;;;;4922451;29;20494;-80
2023/07/15 11:34:34;;;;;;;1.47;0.80;;;24.10;98.20;;;;;;4923924;29;20466;-80
2023/07/15 11:37:07;;;;;;;1.50;0.80;;;24.20;98.20;;;;;;4921789;29;20500;-80
2023/07/15 11:39:40;;;;;;;1.47;0.80;;;24.30;98.20;;;;;;4924184;29;20494;-82
2023/07/15 11:42:09;;;;;;;1.50;0.90;;;24.50;98.20;;;;;;4921846;29;20469;-82
2023/07/15 11:44:37;;;;;;;1.43;0.80;;;24.60;98.20;;;;;;4923772;29;20505;-78
2023/07/15 11:47:06;;;;;;;1.50;0.90;;;24.90;98.20;;;;;;4920295;29;20507;-79
2023/07/15 11:49:44;;;;;;;1.50;0.90;;;25.20;98.20;;;;;;4916363;29;20710;-79
2023/07/15 11:52:22;;;;;;;1.93;1.33;;;25.40;98.20;;;;;;4921976;29;20478;-79
2023/07/15 11:54:50;;;;;;;1.50;0.83;;;25.50;98.20;;;;;;4919554;29;20478;-79
2023/07/15 11:57:50;;;;;;;1.43;0.83;;;25.40;98.20;;;;;;4921154;29;20902;-79
2023/07/15 12:00:32;;;;;;;1.47;0.80;;;25.40;98.20;;;;;;4918997;29;20585;-80
2023/07/15 12:03:00;;;;;;;1.47;0.80;;;25.50;98.20;;;;;;4917337;29;20475;-83
2023/07/15 12:05:27;;;;;;;1.50;0.90;;;25.60;98.20;;;;;;4920090;29;20734;-80
2023/07/15 12:07:54;;;;;;;1.47;0.80;;;25.60;98.20;;;;;;4919240;29;20586;-80
2023/07/15 12:10:21;;;;;;;1.43;0.80;;;25.50;98.20;;;;;;4919657;29;20468;-79
2023/07/15 12:12:49;;;;;;;1.47;0.90;;;25.50;98.20;;;;;;4921017;29;20597;-79
2023/07/15 12:15:19;;;;;;;1.60;1.37;;;25.40;98.20;;;;;;4915125;29;20490;-79
2023/07/15 12:17:46;;;;;;;1.50;0.90;;;25.30;98.20;;;;;;4917725;29;20475;-78
2023/07/15 12:20:13;;;;;;;1.50;0.90;;;25.20;98.20;;;;;;4918872;29;20508;-78
2023/07/15 12:22:41;;;;;;;1.47;0.80;;;25.10;98.20;;;;;;4921824;29;20990;-79
2023/07/15 12:25:08;;;;;;;1.70;1.50;;;25.00;98.20;;;;;;4919356;29;20500;-79
2023/07/15 12:27:36;;;;;;;1.50;0.80;;;24.80;98.20;;;;;;4917861;29;20567;-78
2023/07/15 12:30:06;;;;;;;1.50;0.80;;;24.60;98.20;;;;;;4916082;29;20479;-78
2023/07/15 12:32:33;;;;;;;1.47;0.80;;;24.40;98.20;;;;;;4917440;29;20472;-79
2023/07/15 12:35:01;;;;;;;1.43;0.90;;;24.30;98.20;;;;;;4917833;29;20467;-82
2023/07/15 12:37:28;;;;;;;1.60;1.07;;;24.30;98.20;;;;;;4921290;29;20574;-81
2023/07/15 12:39:55;;;;;;;1.43;0.80;;;24.30;98.20;;;;;;4920936;29;20471;-82
2023/07/15 12:42:22;;;;;;;1.50;0.83;;;24.30;98.20;;;;;;4923299;29;21121;-79
2023/07/15 12:44:51;;;;;;;1.50;0.90;;;24.20;98.20;;;;;;4918724;29;20578;-78
2023/07/15 12:47:22;;;;;;;1.50;0.80;;;24.20;98.20;;;;;;4918760;29;20484;-79
2023/07/15 12:49:49;;;;;;;1.50;0.90;;;24.30;98.20;;;;;;4911854;29;20570;-78
2023/07/15 12:52:17;;;;;;;1.47;0.80;;;24.40;98.20;;;;;;4916673;29;20707;-80
2023/07/15 12:54:44;;;;;;;1.43;0.80;;;24.50;98.20;;;;;;4920285;29;20913;-79
2023/07/15 12:57:11;;;;;;;1.47;0.90;;;24.50;98.20;;;;;;4919553;29;20472;-82
2023/07/15 12:59:38;;;;;;;1.47;0.83;;;24.60;98.20;;;;;;4920403;29;20550;-81
2023/07/15 13:02:06;;;;;;;1.50;0.90;;;24.70;98.20;;;;;;4919941;29;20861;-81
2023/07/15 13:04:35;;;;;;;1.47;0.80;;;24.80;98.20;;;;;;4922363;29;20536;-82
2023/07/15 13:07:05;;;;;;;1.47;0.90;;;24.90;98.20;;;;;;4917463;29;20474;-81
2023/07/15 13:09:34;;;;;;;1.50;0.80;;;24.90;98.20;;;;;;4917182;29;21024;-81
2023/07/15 13:12:08;;;;;;;1.50;0.90;;;24.90;98.20;;;;;;4918892;29;20479;-81
2023/07/15 13:14:36;;;;;;;1.50;1.00;;;25.00;98.20;;;;;;4918330;29;20491;-79
2023/07/15 13:17:03;;;;;;;1.47;0.83;;;25.10;98.20;;;;;;4917318;29;20476;-81
2023/07/15 13:19:32;;;;;;;1.50;0.80;;;25.10;98.20;;;;;;4921631;29;20510;-83
2023/07/15 13:22:01;;;;;;;1.47;0.80;;;25.20;98.20;;;;;;4919653;29;20479;-82
2023/07/15 13:24:35;;;;;;;1.47;0.87;;;25.30;98.20;;;;;;4923997;29;20523;-80
2023/07/15 13:27:02;;;;;;;1.50;0.90;;;25.30;98.20;;;;;;4920949;29;20566;-83
2023/07/15 13:29:30;;;;;;;1.47;0.80;;;25.40;98.20;;;;;;4917850;29;20918;-81
2023/07/15 13:31:57;;;;;;;1.47;0.80;;;25.60;98.20;;;;;;4914293;29;20546;-79
2023/07/15 13:34:27;;;;;;;1.50;0.80;;;25.80;98.20;;;;;;4920642;29;20464;-82
2023/07/15 13:37:26;;;;;;;1.50;0.90;;;25.90;98.20;;;;;;4923239;29;20467;-80
2023/07/15 13:39:56;;;;;;;1.50;0.80;;;26.00;98.20;;;;;;4911769;29;20472;-82
2023/07/15 13:42:26;;;;;;;1.50;0.80;;;25.90;98.20;;;;;;4920827;29;20468;-81
2023/07/15 13:44:55;;;;;;;1.43;0.80;;;25.90;98.20;;;;;;4921151;29;20995;-80
2023/07/15 13:47:23;;;;;;;1.70;1.40;;;25.90;98.20;;;;;;4913867;29;20468;-81
2023/07/15 13:49:50;;;;;;;1.40;0.87;;;25.90;98.20;;;;;;4914684;29;20513;-79
2023/07/15 13:52:19;;;;;;;1.50;0.90;;;25.80;98.20;;;;;;4915965;29;20601;-80
2023/07/15 13:54:46;;;;;;;1.47;0.80;;;25.80;98.20;;;;;;4917322;29;20819;-82
2023/07/15 13:57:16;;;;;;;1.47;0.90;;;25.90;98.20;;;;;;4917509;29;21215;-81
2023/07/15 13:59:43;;;;;;;1.47;0.80;;;25.80;98.20;;;;;;4920748;29;21056;-84
2023/07/15 14:02:15;;;;;;;1.47;0.80;;;25.80;98.20;;;;;;4919159;29;20464;-80
2023/07/15 14:04:45;;;;;;;1.47;0.80;;;25.80;98.20;;;;;;4931666;29;20497;-81
2023/07/15 14:07:13;;;;;;;1.43;0.87;;;25.80;98.20;;;;;;4917943;29;21038;-80
2023/07/15 14:12:37;;;;;;;1.50;0.80;;;26.00;98.20;;;;;;4913010;29;20951;-82
2023/07/15 14:15:05;;;;;;;1.50;0.90;;;26.20;98.20;;;;;;4921521;29;20468;-81
2023/07/15 14:17:41;;;;;;;1.50;0.80;;;26.40;98.20;;;;;;4917416;29;20467;-81
2023/07/15 14:20:09;;;;;;;1.50;0.80;;;26.90;98.20;;;;;;4920905;29;20563;-81
2023/07/15 14:22:42;;;;;;;1.50;0.80;;;27.50;98.20;;;;;;4920605;29;20467;-82
2023/07/15 14:25:11;;;;;;;1.67;1.00;;;28.00;95.40;;;;;;4921264;29;20479;-80